CFX6 weather

Vulcan Airport
Vulcan, Alberta, Canada

Public forecast

Using degrees Celsius for public forecast. Weather courtesy of forecast.io.

METAR (pilot weather report)

Closest report is Lethbridge County Airport, 50.1 nm (92.8 km) SSE. Retrieved 2019/08/21 03:00 UTC (53 minutes ago):

CYQL 210300Z 10007KT 60SM SCT280 19/12 A3005 RMK CI3 SLP175 DENSITY ALT 4100FT

TAF (pilot weather forecast)

Forecast is more than 12 hours old.

Closest forecast is Lethbridge County Airport, 50.1 nm (92.8 km) SSE. Retrieved 2019/08/20 00:39 UTC (1 day ago):

TAF CYQL 202338Z 2100/2112 12010KT P6SM FEW070 SCT300 BECMG 2107/2109 22006KT RMK NXT FCST BY 210600Z